Time;durP1;ratioP1;P1;durP2;ratioP2;P2;SDS_P1;SDS_P2;PMS_P1;PMS_P2;Temp;Humidity;BMP_temperature;BMP_pressure;BME280_temperature;BME280_humidity;BME280_pressure;Samples;Min_cycle;Max_cycle;Signal;HPM_P1;HPM_P2
2022/06/18 00:02:15;;;;;;;3.88;2.83;;;17.20;99.90;;;;;;4971741;28;20286;-82
2022/06/18 00:04:43;;;;;;;2.72;2.47;;;17.10;99.90;;;;;;4953278;29;20296;-81
2022/06/18 00:07:13;;;;;;;2.58;2.38;;;17.10;99.90;;;;;;4955825;28;20217;-82
2022/06/18 00:09:43;;;;;;;3.72;2.38;;;17.20;99.90;;;;;;4971638;28;20215;-81
2022/06/18 00:15:01;;;;;;;2.80;2.58;;;17.00;99.90;;;;;;4972008;28;20189;-81
2022/06/18 00:17:30;;;;;;;3.53;2.80;;;16.60;99.90;;;;;;4971154;28;20200;-81
2022/06/18 00:19:56;;;;;;;2.60;2.40;;;16.40;99.90;;;;;;4955184;28;20218;-81
2022/06/18 00:22:24;;;;;;;4.65;2.70;;;16.20;99.90;;;;;;4972555;28;20208;-82
2022/06/18 00:24:52;;;;;;;3.85;2.47;;;16.30;99.90;;;;;;4972003;28;20206;-81
2022/06/18 00:27:20;;;;;;;3.22;2.92;;;16.50;99.90;;;;;;4970672;28;20706;-81
2022/06/18 00:29:49;;;;;;;3.63;2.60;;;16.70;99.90;;;;;;4972258;28;20208;-82
2022/06/18 00:32:16;;;;;;;2.80;2.60;;;16.70;99.90;;;;;;4966194;28;20230;-82
2022/06/18 00:34:44;;;;;;;5.30;3.05;;;16.30;99.90;;;;;;4977104;28;20221;-82
2022/06/18 00:37:16;;;;;;;3.03;2.53;;;16.30;99.90;;;;;;4975487;28;20292;-82
2022/06/18 00:39:42;;;;;;;2.80;2.60;;;16.30;99.90;;;;;;4972297;28;20198;-82
2022/06/18 00:42:21;;;;;;;3.03;2.72;;;16.20;99.90;;;;;;4962007;28;20205;-82
2022/06/18 00:44:53;;;;;;;3.00;2.70;;;16.40;99.90;;;;;;4986486;28;20205;-81
2022/06/18 00:47:25;;;;;;;2.75;2.55;;;16.20;99.90;;;;;;4980290;28;20202;-81
2022/06/18 00:50:00;;;;;;;3.30;2.97;;;16.30;99.90;;;;;;4972286;28;20317;-81
2022/06/18 00:52:33;;;;;;;3.97;2.85;;;16.20;99.90;;;;;;4970801;28;20308;-82
2022/06/18 00:55:06;;;;;;;3.30;3.00;;;15.90;99.90;;;;;;4972481;28;20204;-81
2022/06/18 00:57:39;;;;;;;3.10;2.75;;;15.60;99.90;;;;;;4971352;28;20223;-81
2022/06/18 01:00:12;;;;;;;2.92;2.72;;;15.60;99.90;;;;;;4974295;28;20225;-84
2022/06/18 01:02:41;;;;;;;5.95;2.83;;;15.60;99.90;;;;;;4975242;28;20273;-84
2022/06/18 01:05:19;;;;;;;2.38;2.20;;;15.70;99.90;;;;;;4975017;28;20236;-84
2022/06/18 01:07:50;;;;;;;3.45;2.60;;;15.80;99.90;;;;;;4974585;28;20202;-84
2022/06/18 01:10:23;;;;;;;5.57;3.03;;;15.90;99.90;;;;;;4974268;28;20222;-84
2022/06/18 01:12:51;;;;;;;3.33;2.50;;;16.00;99.90;;;;;;4974755;28;20236;-84
2022/06/18 01:15:20;;;;;;;2.97;2.45;;;16.00;99.90;;;;;;4973919;28;20212;-83
2022/06/18 01:17:49;;;;;;;2.97;2.75;;;15.90;99.90;;;;;;4957612;28;20246;-84
2022/06/18 01:20:17;;;;;;;3.67;2.70;;;15.90;99.90;;;;;;4973540;28;20321;-83
2022/06/18 01:22:53;;;;;;;3.70;2.67;;;16.00;99.90;;;;;;4968816;28;20234;-84
2022/06/18 01:25:22;;;;;;;2.67;2.47;;;15.90;99.90;;;;;;4954769;28;20220;-84
2022/06/18 01:27:49;;;;;;;2.90;2.65;;;15.90;99.90;;;;;;4971336;28;20201;-84
2022/06/18 01:30:20;;;;;;;3.40;2.50;;;16.00;99.90;;;;;;4991577;28;20311;-84
2022/06/18 01:32:49;;;;;;;2.90;2.70;;;16.10;99.90;;;;;;4971016;28;20232;-84
2022/06/18 01:35:17;;;;;;;3.22;2.20;;;16.00;99.90;;;;;;4974851;28;20932;-84
2022/06/18 01:37:44;;;;;;;2.40;2.20;;;16.20;99.90;;;;;;4974978;28;20213;-84
2022/06/18 01:40:15;;;;;;;10.02;2.67;;;16.20;99.90;;;;;;4975416;28;20236;-84
2022/06/18 01:42:47;;;;;;;2.83;2.63;;;16.30;99.90;;;;;;4975366;28;20208;-84
2022/06/18 01:45:19;;;;;;;3.38;2.40;;;16.40;99.90;;;;;;4974766;28;20245;-84
2022/06/18 01:47:52;;;;;;;2.40;2.20;;;16.40;99.90;;;;;;4975218;28;20290;-84
2022/06/18 01:50:22;;;;;;;3.90;2.22;;;16.40;99.90;;;;;;4975051;28;20587;-84
2022/06/18 01:52:55;;;;;;;4.25;2.63;;;16.50;99.90;;;;;;4974982;28;20228;-85
2022/06/18 01:55:26;;;;;;;3.05;2.55;;;16.60;99.90;;;;;;4974876;28;20233;-85
2022/06/18 01:57:59;;;;;;;4.43;2.50;;;16.60;99.90;;;;;;4975192;28;20201;-84
2022/06/18 02:00:28;;;;;;;2.85;2.28;;;16.70;99.90;;;;;;4975184;28;20253;-83
2022/06/18 02:02:57;;;;;;;2.42;2.22;;;16.60;99.90;;;;;;4975907;28;20216;-84
2022/06/18 02:05:24;;;;;;;2.70;2.50;;;16.60;99.90;;;;;;4974185;28;20281;-84
2022/06/18 02:07:52;;;;;;;2.75;2.28;;;16.60;99.90;;;;;;4974512;28;20212;-84
2022/06/18 02:10:22;;;;;;;2.30;2.10;;;16.50;99.90;;;;;;4974327;28;20301;-83
2022/06/18 02:12:50;;;;;;;2.78;2.58;;;16.50;99.90;;;;;;4974916;28;20316;-84
2022/06/18 02:15:23;;;;;;;3.97;2.60;;;16.50;99.90;;;;;;4974189;28;20655;-83
2022/06/18 02:17:50;;;;;;;2.58;2.38;;;16.70;99.90;;;;;;4974490;28;20197;-84
2022/06/18 02:20:21;;;;;;;2.60;2.40;;;16.60;99.90;;;;;;4974150;28;20312;-84
2022/06/18 02:22:51;;;;;;;2.30;2.20;;;16.60;99.90;;;;;;4974193;28;20638;-84
2022/06/18 02:25:22;;;;;;;3.40;2.58;;;16.70;99.90;;;;;;4974262;28;20218;-84
2022/06/18 02:27:51;;;;;;;2.63;2.42;;;16.70;99.90;;;;;;4974182;28;20237;-84
2022/06/18 02:30:21;;;;;;;2.50;2.30;;;16.70;99.90;;;;;;4974181;28;20226;-83
2022/06/18 02:32:56;;;;;;;3.67;2.55;;;16.90;99.90;;;;;;4974151;28;20232;-84
2022/06/18 02:35:24;;;;;;;3.38;2.40;;;16.70;99.90;;;;;;4954378;29;20358;-85
2022/06/18 02:37:51;;;;;;;2.80;2.53;;;16.70;99.90;;;;;;4956969;28;20198;-84
2022/06/18 02:40:22;;;;;;;4.20;2.20;;;16.70;99.90;;;;;;4974228;28;20781;-83
2022/06/18 02:42:50;;;;;;;2.42;2.20;;;16.80;99.90;;;;;;4973954;28;20721;-84
2022/06/18 02:45:20;;;;;;;4.28;2.22;;;16.80;99.90;;;;;;4973337;28;20220;-84
2022/06/18 02:47:47;;;;;;;3.45;2.63;;;16.80;99.90;;;;;;4973882;28;20218;-84
2022/06/18 02:50:17;;;;;;;3.72;2.00;;;16.70;99.90;;;;;;4954677;29;20226;-84
2022/06/18 02:52:49;;;;;;;2.90;2.60;;;16.80;99.90;;;;;;4954649;29;20317;-84
2022/06/18 02:55:22;;;;;;;3.78;2.58;;;16.70;99.90;;;;;;4972979;28;20201;-84
2022/06/18 02:57:53;;;;;;;3.45;2.30;;;16.70;99.90;;;;;;4973596;28;20202;-84
2022/06/18 03:00:21;;;;;;;2.47;2.28;;;16.70;99.90;;;;;;4973357;28;20217;-84
2022/06/18 03:02:48;;;;;;;2.53;2.33;;;16.80;99.90;;;;;;4973814;28;20202;-83
2022/06/18 03:05:20;;;;;;;2.97;2.40;;;16.80;99.90;;;;;;4972944;28;20288;-84
2022/06/18 03:07:47;;;;;;;2.38;2.17;;;16.90;99.90;;;;;;4972381;28;20285;-84
2022/06/18 03:13:00;;;;;;;3.78;2.40;;;17.00;99.90;;;;;;4969423;28;20280;-84
2022/06/18 03:15:30;;;;;;;2.25;2.03;;;17.10;99.90;;;;;;4972002;28;20658;-84
2022/06/18 03:17:57;;;;;;;4.03;2.58;;;17.10;99.90;;;;;;4972577;28;20215;-84
2022/06/18 03:20:29;;;;;;;3.85;2.75;;;17.10;99.90;;;;;;4973028;28;20235;-84
2022/06/18 03:22:56;;;;;;;2.55;2.35;;;17.00;99.90;;;;;;4971827;28;20197;-84
2022/06/18 03:25:23;;;;;;;2.40;2.20;;;17.30;99.90;;;;;;4969639;28;20289;-84
2022/06/18 03:27:49;;;;;;;2.47;2.35;;;17.40;99.90;;;;;;4968457;28;20572;-84
2022/06/18 03:30:18;;;;;;;2.60;2.20;;;17.50;99.90;;;;;;4972316;28;20230;-84
2022/06/18 03:32:46;;;;;;;3.35;2.70;;;17.40;99.90;;;;;;4972273;28;20627;-85
2022/06/18 03:35:13;;;;;;;2.47;2.25;;;17.40;99.90;;;;;;4970558;28;20662;-84
2022/06/18 03:37:39;;;;;;;2.50;2.30;;;17.50;99.90;;;;;;4972529;28;20211;-85
2022/06/18 03:40:08;;;;;;;3.05;2.20;;;17.60;99.90;;;;;;4969975;28;20321;-83
2022/06/18 03:42:35;;;;;;;2.47;2.33;;;17.50;99.90;;;;;;4971120;28;20237;-84
2022/06/18 03:45:01;;;;;;;2.70;2.50;;;17.60;99.90;;;;;;4956820;28;20226;-83
2022/06/18 03:47:29;;;;;;;3.30;2.13;;;17.70;99.90;;;;;;4963912;28;20194;-84
2022/06/18 03:49:57;;;;;;;4.65;2.25;;;17.90;99.90;;;;;;4971219;28;20220;-84
2022/06/18 03:52:24;;;;;;;3.33;2.28;;;18.00;99.90;;;;;;4972478;28;20312;-84
2022/06/18 03:54:51;;;;;;;3.50;2.20;;;18.30;99.90;;;;;;4972323;28;20210;-84
2022/06/18 03:57:19;;;;;;;2.78;2.00;;;18.30;99.90;;;;;;4972790;28;20229;-85
2022/06/18 03:59:46;;;;;;;4.65;2.40;;;18.40;99.90;;;;;;4972057;28;20219;-84
2022/06/18 04:02:13;;;;;;;6.80;2.40;;;18.50;99.60;;;;;;4971349;28;20316;-84
2022/06/18 04:04:40;;;;;;;2.60;2.40;;;18.60;99.90;;;;;;4972033;28;20202;-84
2022/06/18 04:07:15;;;;;;;4.53;2.38;;;18.60;99.90;;;;;;4971616;28;20209;-84
2022/06/18 04:09:43;;;;;;;2.47;2.28;;;18.70;99.90;;;;;;4969767;28;20197;-86
2022/06/18 04:12:10;;;;;;;3.20;2.35;;;19.40;98.30;;;;;;4971440;28;20232;-86
2022/06/18 04:14:37;;;;;;;3.15;2.50;;;20.60;90.70;;;;;;4971767;28;20582;-86
2022/06/18 04:17:05;;;;;;;2.13;1.92;;;21.20;85.40;;;;;;4971009;28;20217;-86
2022/06/18 04:19:32;;;;;;;3.47;3.15;;;21.60;81.10;;;;;;4972249;28;20746;-85
2022/06/18 04:21:59;;;;;;;6.32;5.25;;;21.90;74.70;;;;;;4971770;28;20202;-86
2022/06/18 04:24:27;;;;;;;5.53;4.10;;;22.40;72.50;;;;;;4978386;28;20205;-87
2022/06/18 04:26:54;;;;;;;3.47;2.38;;;22.10;72.80;;;;;;4982013;28;20202;-86
2022/06/18 04:29:22;;;;;;;2.33;2.05;;;21.10;80.50;;;;;;4970043;28;20201;-87
2022/06/18 04:31:48;;;;;;;3.65;2.45;;;20.40;85.00;;;;;;4979557;28;20216;-86
2022/06/18 04:34:15;;;;;;;2.40;2.20;;;20.10;90.80;;;;;;4968628;28;20237;-86
2022/06/18 04:36:42;;;;;;;2.60;2.40;;;19.80;92.30;;;;;;4978580;28;20289;-86
2022/06/18 04:39:10;;;;;;;2.45;2.22;;;20.00;93.70;;;;;;4964669;28;20301;-86
2022/06/18 04:41:39;;;;;;;3.60;2.40;;;20.60;90.40;;;;;;4967611;28;20229;-86
2022/06/18 04:44:06;;;;;;;2.33;2.20;;;20.20;92.40;;;;;;4975790;28;20216;-86
2022/06/18 04:46:33;;;;;;;3.88;2.20;;;20.00;92.10;;;;;;4987518;28;20219;-86
2022/06/18 04:49:00;;;;;;;3.47;2.80;;;19.90;92.60;;;;;;4979717;28;20289;-87
2022/06/18 04:51:27;;;;;;;2.80;2.30;;;19.70;96.00;;;;;;4974560;28;20360;-86
2022/06/18 04:53:54;;;;;;;3.17;2.20;;;19.70;98.80;;;;;;4976399;28;20225;-87
2022/06/18 04:56:21;;;;;;;2.30;2.20;;;19.60;99.90;;;;;;4973114;28;20202;-87
2022/06/18 04:58:49;;;;;;;3.47;2.53;;;19.60;98.20;;;;;;4975833;28;20314;-86
2022/06/18 05:01:19;;;;;;;3.20;2.40;;;19.60;97.20;;;;;;4975307;28;20288;-87
2022/06/18 05:03:46;;;;;;;6.45;5.40;;;19.80;98.70;;;;;;4975584;28;20808;-86
2022/06/18 05:06:12;;;;;;;6.65;2.50;;;20.00;99.90;;;;;;4974158;28;20198;-85
2022/06/18 05:08:40;;;;;;;4.22;2.47;;;20.40;94.80;;;;;;4975146;28;20220;-86
2022/06/18 05:11:07;;;;;;;2.40;2.20;;;20.90;90.90;;;;;;4974104;28;20586;-86
2022/06/18 05:13:34;;;;;;;5.88;2.25;;;21.20;91.40;;;;;;4975184;28;20353;-86
2022/06/18 05:16:02;;;;;;;2.72;2.20;;;21.60;90.60;;;;;;4973873;28;20292;-87
2022/06/18 05:18:33;;;;;;;2.50;2.30;;;21.50;86.90;;;;;;4975253;28;20216;-85
2022/06/18 05:21:00;;;;;;;3.45;2.35;;;21.30;87.20;;;;;;4973839;28;20227;-86
2022/06/18 05:23:27;;;;;;;4.95;2.95;;;21.10;90.80;;;;;;4975117;28;20206;-86
2022/06/18 05:25:57;;;;;;;5.88;5.13;;;20.90;94.00;;;;;;4974125;28;20208;-86
2022/06/18 05:28:24;;;;;;;6.57;3.15;;;22.00;90.40;;;;;;4967195;28;20198;-84
2022/06/18 05:30:52;;;;;;;4.55;2.50;;;22.00;89.90;;;;;;4973426;28;20653;-85
2022/06/18 05:33:20;;;;;;;2.90;2.53;;;21.70;88.30;;;;;;4974704;28;20229;-86
2022/06/18 05:35:47;;;;;;;2.72;2.53;;;21.70;89.80;;;;;;4969550;28;20292;-84
2022/06/18 05:38:17;;;;;;;2.95;2.20;;;21.60;90.90;;;;;;4976595;28;20216;-84
2022/06/18 05:40:45;;;;;;;2.83;2.20;;;22.10;90.80;;;;;;4976327;28;20229;-83
2022/06/18 05:43:12;;;;;;;2.42;2.22;;;22.30;91.30;;;;;;4978763;28;20289;-83
2022/06/18 05:45:39;;;;;;;2.20;2.10;;;23.70;83.50;;;;;;4976338;28;20224;-83
2022/06/18 05:48:07;;;;;;;2.63;2.20;;;23.40;76.70;;;;;;4980307;28;20221;-84
2022/06/18 05:50:35;;;;;;;2.63;2.22;;;22.80;81.50;;;;;;4977854;28;20240;-83
2022/06/18 05:53:02;;;;;;;5.38;2.60;;;22.90;81.40;;;;;;4979397;28;20607;-84
2022/06/18 05:55:29;;;;;;;3.38;2.30;;;23.30;78.70;;;;;;4979570;28;20205;-83
2022/06/18 05:57:58;;;;;;;2.78;2.20;;;23.40;70.30;;;;;;4977862;28;20285;-83
2022/06/18 06:00:28;;;;;;;2.70;2.22;;;23.00;72.90;;;;;;4979797;28;20261;-83
2022/06/18 06:02:56;;;;;;;2.33;2.13;;;22.80;74.20;;;;;;4972913;28;20289;-83
2022/06/18 06:05:24;;;;;;;4.57;2.42;;;22.60;73.30;;;;;;4966587;28;20213;-82
2022/06/18 06:07:53;;;;;;;3.17;2.38;;;22.70;73.90;;;;;;4986955;28;20197;-83
2022/06/18 06:13:09;;;;;;;3.08;2.28;;;22.80;74.40;;;;;;4969756;28;20225;-83
2022/06/18 06:15:36;;;;;;;4.53;2.40;;;22.90;72.90;;;;;;4967837;28;20198;-82
2022/06/18 06:18:04;;;;;;;3.15;2.35;;;23.00;72.10;;;;;;4978174;28;20220;-82
2022/06/18 06:20:34;;;;;;;5.45;2.40;;;23.10;71.90;;;;;;4977385;28;20313;-83
2022/06/18 06:23:02;;;;;;;3.40;2.40;;;23.00;71.60;;;;;;4971084;28;20214;-83
2022/06/18 06:25:29;;;;;;;5.45;2.63;;;22.80;71.80;;;;;;4971092;28;20205;-83
2022/06/18 06:27:56;;;;;;;4.30;2.67;;;22.90;72.10;;;;;;4978719;28;20637;-81
2022/06/18 06:30:23;;;;;;;2.78;2.55;;;23.00;74.10;;;;;;4975191;28;20253;-83
2022/06/18 06:32:50;;;;;;;2.85;2.33;;;23.10;72.70;;;;;;4977624;28;20709;-83
2022/06/18 06:35:17;;;;;;;3.35;2.38;;;23.10;73.50;;;;;;4978138;28;20205;-84
2022/06/18 06:37:44;;;;;;;3.72;2.58;;;23.10;73.50;;;;;;4977404;28;20202;-83
2022/06/18 06:40:14;;;;;;;4.28;2.75;;;23.10;74.50;;;;;;4975698;28;20227;-80
2022/06/18 06:42:43;;;;;;;3.63;2.50;;;23.20;73.50;;;;;;4976299;28;20265;-82
2022/06/18 06:45:13;;;;;;;4.40;2.47;;;23.30;72.90;;;;;;4976632;28;20225;-83
2022/06/18 06:47:40;;;;;;;3.03;2.83;;;23.30;74.70;;;;;;4982614;28;20202;-83
2022/06/18 06:50:08;;;;;;;5.72;3.00;;;23.40;73.50;;;;;;4974680;28;20228;-83
2022/06/18 06:52:35;;;;;;;4.22;2.67;;;23.50;75.60;;;;;;4975885;28;20236;-83
2022/06/18 06:57:48;;;;;;;3.85;2.80;;;23.70;76.30;;;;;;4973603;28;20240;-82
2022/06/18 07:00:15;;;;;;;4.63;2.30;;;23.80;73.90;;;;;;4977615;28;20225;-82
2022/06/18 07:02:43;;;;;;;2.65;2.45;;;23.90;74.00;;;;;;4973356;28;20289;-82
2022/06/18 07:05:12;;;;;;;5.85;3.35;;;24.00;74.20;;;;;;4959381;29;20210;-84
2022/06/18 07:07:38;;;;;;;3.72;3.20;;;24.00;72.80;;;;;;4971753;28;20198;-82
2022/06/18 07:10:08;;;;;;;3.67;2.80;;;24.00;70.90;;;;;;4977436;28;20232;-83
2022/06/18 07:12:35;;;;;;;5.38;3.20;;;24.00;71.10;;;;;;4976902;28;20209;-83
2022/06/18 07:15:03;;;;;;;4.28;2.80;;;24.10;71.40;;;;;;4977336;28;20209;-82
2022/06/18 07:17:30;;;;;;;3.67;3.00;;;24.20;70.50;;;;;;4976644;28;20205;-82
2022/06/18 07:19:57;;;;;;;5.82;2.75;;;24.30;71.30;;;;;;4976323;28;20218;-83
2022/06/18 07:22:25;;;;;;;4.53;3.13;;;24.30;72.50;;;;;;4977551;28;20210;-83
2022/06/18 07:24:52;;;;;;;3.55;2.88;;;24.30;70.00;;;;;;4976710;28;20214;-84
2022/06/18 07:27:19;;;;;;;6.95;4.10;;;24.40;70.30;;;;;;4973940;28;20600;-83
2022/06/18 07:29:46;;;;;;;5.72;3.47;;;24.50;71.20;;;;;;4973792;28;20206;-83
2022/06/18 07:32:19;;;;;;;7.15;5.90;;;24.60;73.20;;;;;;4972638;28;20241;-83
2022/06/18 07:34:47;;;;;;;4.85;3.08;;;24.70;73.30;;;;;;4973402;28;20225;-83
2022/06/18 07:37:14;;;;;;;6.53;3.40;;;24.70;72.20;;;;;;4970723;28;20236;-84
2022/06/18 07:39:40;;;;;;;4.68;3.40;;;24.70;69.60;;;;;;4974842;28;20292;-84
2022/06/18 07:42:08;;;;;;;4.43;3.17;;;24.80;70.60;;;;;;4974164;28;20212;-81
2022/06/18 07:44:35;;;;;;;4.07;3.22;;;25.00;72.10;;;;;;4973559;28;20337;-81
2022/06/18 07:47:02;;;;;;;3.92;3.08;;;25.00;70.00;;;;;;4977060;28;20214;-79
2022/06/18 07:49:31;;;;;;;4.70;3.53;;;25.00;70.60;;;;;;4976444;28;20206;-80
2022/06/18 07:51:58;;;;;;;6.40;3.53;;;25.20;71.10;;;;;;4978439;28;20229;-81
2022/06/18 07:54:25;;;;;;;4.30;3.38;;;25.20;72.50;;;;;;4980061;28;20591;-81
2022/06/18 07:56:52;;;;;;;4.50;3.45;;;25.30;69.00;;;;;;4981574;28;20198;-81
2022/06/18 07:59:19;;;;;;;4.30;3.17;;;25.30;68.50;;;;;;4976940;28;20593;-79
2022/06/18 08:01:46;;;;;;;4.10;3.47;;;25.40;69.20;;;;;;4977349;28;20568;-81
2022/06/18 08:04:13;;;;;;;4.43;3.28;;;25.50;67.70;;;;;;4977428;28;20202;-82
2022/06/18 08:06:41;;;;;;;5.32;3.35;;;25.60;69.10;;;;;;4977449;28;20300;-81
2022/06/18 08:09:08;;;;;;;6.97;3.47;;;25.70;70.00;;;;;;4976408;28;20221;-82
2022/06/18 08:11:37;;;;;;;6.13;3.50;;;25.70;64.70;;;;;;4976318;28;20326;-82
2022/06/18 08:14:05;;;;;;;4.63;3.67;;;25.80;66.20;;;;;;4976620;28;20674;-81
2022/06/18 08:16:32;;;;;;;5.90;3.40;;;25.70;65.20;;;;;;4976805;28;20273;-82
2022/06/18 08:18:59;;;;;;;3.65;3.35;;;25.80;65.40;;;;;;4975959;28;20232;-82
2022/06/18 08:21:29;;;;;;;4.03;3.65;;;25.90;64.20;;;;;;4975915;28;20312;-82
2022/06/18 08:24:01;;;;;;;6.18;3.55;;;26.00;65.80;;;;;;4975560;28;20212;-82
2022/06/18 08:26:28;;;;;;;4.60;3.97;;;26.20;64.50;;;;;;4974502;28;20208;-82
2022/06/18 08:28:56;;;;;;;3.80;3.42;;;26.20;64.50;;;;;;4975382;28;20229;-81
2022/06/18 08:31:23;;;;;;;5.10;3.90;;;26.20;63.60;;;;;;4974806;28;20605;-81
2022/06/18 08:33:50;;;;;;;6.88;3.90;;;26.30;63.50;;;;;;4977960;28;20288;-80
2022/06/18 08:36:17;;;;;;;6.63;3.63;;;26.50;64.10;;;;;;4974498;28;20198;-79
2022/06/18 08:38:47;;;;;;;9.65;3.55;;;26.50;64.00;;;;;;4977448;28;20233;-81
2022/06/18 08:41:44;;;;;;;4.40;3.38;;;26.80;63.50;;;;;;4975522;28;20224;-82
2022/06/18 08:44:51;;;;;;;6.40;4.03;;;26.80;62.10;;;;;;4978939;28;20631;-80
2022/06/18 08:47:34;;;;;;;6.90;3.88;;;27.00;61.10;;;;;;4978870;28;20680;-81
2022/06/18 08:50:28;;;;;;;7.25;4.13;;;27.30;60.00;;;;;;4976041;28;20277;-81
2022/06/18 08:53:22;;;;;;;10.23;4.65;;;27.70;59.80;;;;;;4966985;28;20208;-81
2022/06/18 08:55:57;;;;;;;7.53;3.60;;;28.30;58.90;;;;;;4970084;28;20212;-81
2022/06/18 08:58:32;;;;;;;9.15;3.85;;;28.10;57.40;;;;;;4978397;28;20185;-80
2022/06/18 09:01:05;;;;;;;7.18;3.88;;;28.40;54.30;;;;;;4976456;28;20733;-81
2022/06/18 09:03:46;;;;;;;7.80;4.30;;;28.60;54.10;;;;;;4972824;28;20261;-81
2022/06/18 09:06:27;;;;;;;5.13;4.00;;;28.60;53.30;;;;;;4985019;28;20209;-80
2022/06/18 09:09:02;;;;;;;6.32;3.95;;;29.00;53.80;;;;;;4970375;28;20606;-81
2022/06/18 09:11:47;;;;;;;6.85;4.53;;;29.20;53.00;;;;;;4964386;28;20241;-81
2022/06/18 09:14:23;;;;;;;6.57;4.18;;;29.20;51.50;;;;;;4973577;28;20248;-80
2022/06/18 09:17:04;;;;;;;5.65;4.10;;;29.60;52.60;;;;;;4972867;28;20197;-81
2022/06/18 09:19:33;;;;;;;7.47;4.03;;;29.70;50.00;;;;;;4975050;28;20694;-81
2022/06/18 09:22:02;;;;;;;9.13;3.90;;;29.90;50.00;;;;;;4978302;28;20214;-80
2022/06/18 09:24:35;;;;;;;6.97;4.03;;;30.20;48.50;;;;;;4984651;28;20248;-82
2022/06/18 09:27:07;;;;;;;9.70;4.40;;;30.10;48.90;;;;;;4982191;28;20322;-82
2022/06/18 09:29:41;;;;;;;7.18;4.45;;;30.50;47.40;;;;;;4981146;28;20201;-81
2022/06/18 09:32:12;;;;;;;8.07;4.25;;;30.50;46.40;;;;;;4974001;28;20198;-81
2022/06/18 09:34:45;;;;;;;7.07;3.88;;;31.00;47.90;;;;;;4976731;28;20229;-80
2022/06/18 09:37:17;;;;;;;7.63;3.78;;;31.00;46.20;;;;;;4976538;28;20193;-82
2022/06/18 09:39:48;;;;;;;9.35;4.63;;;30.70;44.30;;;;;;4974362;28;20306;-82
2022/06/18 09:42:20;;;;;;;7.07;3.95;;;30.80;44.60;;;;;;4977430;28;20205;-83
2022/06/18 09:44:54;;;;;;;6.95;4.40;;;31.10;45.80;;;;;;4977630;28;20201;-83
2022/06/18 09:47:29;;;;;;;7.95;4.40;;;31.40;48.20;;;;;;4979070;28;20201;-82
2022/06/18 09:49:56;;;;;;;7.75;4.50;;;31.70;42.80;;;;;;4973388;28;20236;-81
2022/06/18 09:52:32;;;;;;;9.43;4.50;;;31.90;42.70;;;;;;4974540;28;20284;-82
2022/06/18 09:55:04;;;;;;;9.90;4.25;;;31.90;41.70;;;;;;4967856;28;20234;-82
2022/06/18 09:57:37;;;;;;;6.47;4.18;;;32.20;40.00;;;;;;4971212;28;20201;-83
2022/06/18 10:00:09;;;;;;;10.20;4.10;;;32.00;39.20;;;;;;4976567;28;20866;-83
2022/06/18 10:02:42;;;;;;;9.23;4.10;;;32.00;42.10;;;;;;4975026;28;20281;-83
2022/06/18 10:08:03;;;;;;;6.80;4.10;;;31.90;38.20;;;;;;4966216;28;20252;-82
2022/06/18 10:10:31;;;;;;;11.77;5.00;;;32.20;39.10;;;;;;4969680;28;20669;-82
2022/06/18 10:13:00;;;;;;;6.93;4.20;;;32.20;38.20;;;;;;4965718;28;20681;-82
2022/06/18 10:15:29;;;;;;;10.05;4.43;;;32.10;36.90;;;;;;4968171;28;20304;-83
2022/06/18 10:18:16;;;;;;;8.18;4.63;;;32.20;38.30;;;;;;4977582;28;20242;-82
2022/06/18 10:20:47;;;;;;;8.20;4.53;;;32.30;37.50;;;;;;4974036;28;20304;-81
2022/06/18 10:23:39;;;;;;;8.90;4.65;;;32.60;38.10;;;;;;4978242;28;20201;-81
2022/06/18 10:26:16;;;;;;;7.93;4.45;;;32.60;35.10;;;;;;4975772;28;20201;-82
2022/06/18 10:28:52;;;;;;;9.45;5.05;;;32.70;34.60;;;;;;4978840;28;20289;-82
2022/06/18 10:31:30;;;;;;;5.82;4.65;;;32.70;32.90;;;;;;4970999;28;20317;-82
2022/06/18 10:34:09;;;;;;;7.70;4.65;;;33.10;34.70;;;;;;4975207;28;20225;-82
2022/06/18 10:36:44;;;;;;;9.07;4.50;;;32.70;34.10;;;;;;4972759;28;20280;-83
2022/06/18 10:39:20;;;;;;;10.63;4.47;;;32.50;34.00;;;;;;4970556;28;20216;-83
2022/06/18 10:42:02;;;;;;;11.15;6.30;;;32.60;35.20;;;;;;4981667;28;20237;-83
2022/06/18 10:44:41;;;;;;;8.05;5.32;;;32.60;34.20;;;;;;4970175;28;20212;-83
2022/06/18 10:47:12;;;;;;;9.23;4.63;;;32.90;32.20;;;;;;4972366;28;20212;-82
2022/06/18 10:49:39;;;;;;;12.00;6.80;;;32.50;33.40;;;;;;4974486;28;20204;-82
2022/06/18 10:52:18;;;;;;;15.85;10.95;;;32.50;33.80;;;;;;4970696;28;20290;-83
2022/06/18 10:54:45;;;;;;;8.95;5.15;;;33.00;33.00;;;;;;4967410;28;20309;-83
2022/06/18 10:57:22;;;;;;;9.25;4.50;;;33.20;32.40;;;;;;4983193;28;20263;-83
2022/06/18 10:59:49;;;;;;;12.20;4.80;;;33.00;32.40;;;;;;4972228;28;20201;-84
2022/06/18 11:02:20;;;;;;;7.30;4.63;;;33.20;31.20;;;;;;4981483;28;20284;-83
2022/06/18 11:04:55;;;;;;;11.75;4.30;;;32.90;29.90;;;;;;4972624;28;20252;-83
2022/06/18 11:07:23;;;;;;;9.93;4.43;;;33.30;31.80;;;;;;4971851;28;20197;-83
2022/06/18 11:09:56;;;;;;;9.35;4.40;;;32.90;30.30;;;;;;4974579;28;20654;-83
2022/06/18 11:12:27;;;;;;;12.73;5.47;;;33.10;30.80;;;;;;4975217;28;20216;-84
2022/06/18 11:14:54;;;;;;;10.77;5.22;;;33.10;29.60;;;;;;4969088;28;20229;-82
2022/06/18 11:17:28;;;;;;;9.20;5.13;;;33.20;28.50;;;;;;4970746;28;20596;-83
2022/06/18 11:19:55;;;;;;;9.13;4.53;;;32.90;29.20;;;;;;4969346;28;20308;-83
2022/06/18 11:22:27;;;;;;;9.20;4.72;;;33.20;29.50;;;;;;4971180;28;20230;-83
2022/06/18 11:24:56;;;;;;;10.60;4.40;;;33.10;28.70;;;;;;4972723;28;20201;-84
2022/06/18 11:27:24;;;;;;;10.05;4.55;;;33.50;29.10;;;;;;4974585;28;20224;-83
2022/06/18 11:29:54;;;;;;;12.55;4.78;;;33.30;29.00;;;;;;4976325;28;20213;-83
2022/06/18 11:32:25;;;;;;;8.48;4.57;;;32.90;29.00;;;;;;4965920;28;20212;-83
2022/06/18 11:35:00;;;;;;;6.68;4.38;;;33.50;29.70;;;;;;4972086;28;20300;-83
2022/06/18 11:37:30;;;;;;;11.82;4.85;;;33.60;27.80;;;;;;4964263;28;20207;-83
2022/06/18 11:39:59;;;;;;;6.38;4.35;;;33.50;28.70;;;;;;4968635;28;20280;-83
2022/06/18 11:42:32;;;;;;;10.25;4.97;;;33.90;28.70;;;;;;4965690;28;20206;-83
2022/06/18 11:45:11;;;;;;;9.82;4.18;;;33.60;27.20;;;;;;4966649;28;20301;-84
2022/06/18 11:47:49;;;;;;;8.88;5.05;;;34.10;28.00;;;;;;4972631;28;20217;-83
2022/06/18 11:50:20;;;;;;;9.98;4.75;;;33.60;26.80;;;;;;4971990;28;20275;-84
2022/06/18 11:52:54;;;;;;;8.77;4.38;;;33.40;26.70;;;;;;4968644;28;20233;-83
2022/06/18 11:55:25;;;;;;;8.13;4.32;;;33.30;27.20;;;;;;4975291;28;20209;-84
2022/06/18 11:58:00;;;;;;;8.38;4.47;;;33.30;26.20;;;;;;4975638;28;20284;-83
2022/06/18 12:00:33;;;;;;;8.40;4.72;;;33.90;27.70;;;;;;4973589;28;20221;-83
2022/06/18 12:03:18;;;;;;;7.75;4.40;;;33.50;26.90;;;;;;4966650;28;20194;-83
2022/06/18 12:05:48;;;;;;;7.63;4.60;;;33.60;27.00;;;;;;4966676;28;20259;-84
2022/06/18 12:08:18;;;;;;;9.50;4.40;;;34.00;25.90;;;;;;4971357;28;20288;-83
2022/06/18 12:10:48;;;;;;;9.77;5.05;;;33.60;24.60;;;;;;4971340;28;20229;-83
2022/06/18 12:13:25;;;;;;;10.30;4.97;;;33.80;26.30;;;;;;4982771;28;20284;-82
2022/06/18 12:16:01;;;;;;;9.65;5.15;;;33.70;26.20;;;;;;4971353;28;20761;-82
2022/06/18 12:18:35;;;;;;;9.85;4.57;;;33.90;24.90;;;;;;4956534;29;20214;-81
2022/06/18 12:21:21;;;;;;;7.80;4.43;;;33.90;24.30;;;;;;4973052;28;20243;-80
2022/06/18 12:23:58;;;;;;;9.88;4.90;;;33.50;22.90;;;;;;4976843;28;20297;-81
2022/06/18 12:26:34;;;;;;;8.05;4.72;;;33.90;23.70;;;;;;4968547;28;20203;-82
2022/06/18 12:29:20;;;;;;;10.35;5.00;;;33.90;25.00;;;;;;4968316;28;20216;-82
2022/06/18 12:31:55;;;;;;;9.60;5.18;;;33.50;26.20;;;;;;4972075;28;20681;-82
2022/06/18 12:34:31;;;;;;;7.53;4.40;;;33.40;25.80;;;;;;4978815;28;20227;-83
2022/06/18 12:37:07;;;;;;;10.90;4.55;;;33.70;26.30;;;;;;4981085;28;20294;-86
2022/06/18 12:39:42;;;;;;;10.18;4.68;;;33.90;24.10;;;;;;4966935;28;20197;-84
2022/06/18 12:42:15;;;;;;;7.55;4.60;;;33.50;25.30;;;;;;4967454;28;20219;-81
2022/06/18 12:44:49;;;;;;;8.50;4.50;;;34.10;25.80;;;;;;4974548;28;20206;-82
2022/06/18 12:47:24;;;;;;;10.73;4.93;;;33.80;24.20;;;;;;4974129;28;20229;-83
2022/06/18 12:50:02;;;;;;;11.90;5.13;;;33.60;23.20;;;;;;4970273;28;20248;-83
2022/06/18 12:52:38;;;;;;;7.30;4.65;;;33.40;26.70;;;;;;4975172;28;20233;-83
2022/06/18 12:55:20;;;;;;;9.15;4.60;;;33.30;28.70;;;;;;4980131;28;20225;-82
2022/06/18 12:57:55;;;;;;;10.93;5.15;;;33.60;27.20;;;;;;4978541;28;20202;-84
2022/06/18 13:00:27;;;;;;;14.00;5.20;;;33.60;26.90;;;;;;4986028;28;20224;-84
2022/06/18 13:03:16;;;;;;;7.47;4.85;;;33.00;26.30;;;;;;4974776;28;20374;-82
2022/06/18 13:05:47;;;;;;;7.70;5.00;;;33.20;27.50;;;;;;4975605;28;20545;-81
2022/06/18 13:08:38;;;;;;;9.60;4.50;;;33.50;27.70;;;;;;4977452;28;20281;-83
2022/06/18 13:11:16;;;;;;;8.82;5.03;;;33.10;26.60;;;;;;4977321;28;20229;-82
2022/06/18 13:13:56;;;;;;;8.23;5.05;;;33.50;26.50;;;;;;4971316;28;20607;-82
2022/06/18 13:16:28;;;;;;;11.13;4.93;;;33.80;25.50;;;;;;4977005;28;20317;-83
2022/06/18 13:19:03;;;;;;;8.98;4.72;;;34.10;25.70;;;;;;4975742;28;20210;-82